createdAt,value
2023-04-12T00:02:03.810Z,10.98
2023-04-12T00:04:30.855Z,10.96
2023-04-12T00:07:01.019Z,11.02
2023-04-12T00:09:31.391Z,10.98
2023-04-12T00:11:59.794Z,10.97
2023-04-12T00:14:26.854Z,10.85
2023-04-12T00:16:54.710Z,10.66
2023-04-12T00:19:21.530Z,10.62
2023-04-12T00:21:48.880Z,10.52
2023-04-12T00:24:15.902Z,10.35
2023-04-12T00:26:42.683Z,10.32
2023-04-12T00:29:11.040Z,10.30
2023-04-12T00:31:37.942Z,10.23
2023-04-12T00:34:04.687Z,10.25
2023-04-12T00:36:31.893Z,10.25
2023-04-12T00:38:59.002Z,10.20
2023-04-12T00:41:27.571Z,10.17
2023-04-12T00:43:54.554Z,10.14
2023-04-12T00:46:21.636Z,10.15
2023-04-12T00:48:50.184Z,10.15
2023-04-12T00:51:18.143Z,10.17
2023-04-12T00:53:47.038Z,10.11
2023-04-12T00:56:14.335Z,10.09
2023-04-12T00:58:42.363Z,10.08
2023-04-12T01:01:11.243Z,10.07
2023-04-12T01:03:43.660Z,10.03
2023-04-12T01:06:29.795Z,10.01
2023-04-12T01:09:12.192Z,9.96
2023-04-12T01:11:53.730Z,9.97
2023-04-12T01:14:39.826Z,9.98
2023-04-12T01:17:14.207Z,9.92
2023-04-12T01:19:57.721Z,9.89
2023-04-12T01:22:32.828Z,9.93
2023-04-12T01:25:22.675Z,9.85
2023-04-12T01:27:54.721Z,9.82
2023-04-12T01:30:22.177Z,9.74
2023-04-12T01:32:54.142Z,9.79
2023-04-12T01:35:27.991Z,9.74
2023-04-12T01:37:57.464Z,9.71
2023-04-12T01:40:28.129Z,9.72
2023-04-12T01:43:14.151Z,9.69
2023-04-12T01:45:41.148Z,9.70
2023-04-12T01:48:11.079Z,9.68
2023-04-12T01:51:12.995Z,9.66
2023-04-12T01:53:57.620Z,9.60
2023-04-12T01:56:30.064Z,9.60
2023-04-12T01:58:59.119Z,9.59
2023-04-12T02:01:29.071Z,9.50
2023-04-12T02:04:00.975Z,9.49
2023-04-12T02:06:28.840Z,9.48
2023-04-12T02:09:04.094Z,9.45
2023-04-12T02:11:31.384Z,9.38
2023-04-12T02:13:59.246Z,9.39
2023-04-12T02:16:29.287Z,9.37
2023-04-12T02:18:57.404Z,9.32
2023-04-12T02:21:25.028Z,9.28
2023-04-12T02:23:51.870Z,9.27
2023-04-12T02:26:18.963Z,9.30
2023-04-12T02:28:46.236Z,9.32
2023-04-12T02:31:13.328Z,9.22
2023-04-12T02:33:41.274Z,9.19
2023-04-12T02:36:11.555Z,9.13
2023-04-12T02:38:38.673Z,9.21
2023-04-12T02:41:06.505Z,9.20
2023-04-12T02:43:34.390Z,9.13
2023-04-12T02:46:01.227Z,9.10
2023-04-12T02:48:28.501Z,9.09
2023-04-12T02:50:55.633Z,9.02
2023-04-12T02:53:22.759Z,9.00
2023-04-12T02:55:50.460Z,9.00
2023-04-12T02:58:17.636Z,9.03
2023-04-12T03:00:45.971Z,8.96
2023-04-12T03:03:14.095Z,8.99
2023-04-12T03:05:42.543Z,8.96
2023-04-12T03:08:09.950Z,8.95
2023-04-12T03:10:36.886Z,8.92
2023-04-12T03:13:05.198Z,8.83
2023-04-12T03:15:32.688Z,8.87
2023-04-12T03:17:59.744Z,8.86
2023-04-12T03:20:28.409Z,8.80
2023-04-12T03:22:55.402Z,8.77
2023-04-12T03:25:22.524Z,8.71
2023-04-12T03:27:52.044Z,8.79
2023-04-12T03:30:19.673Z,8.76
2023-04-12T03:32:46.767Z,8.75
2023-04-12T03:35:13.859Z,8.73
2023-04-12T03:37:42.658Z,8.81
2023-04-12T03:40:11.151Z,8.78
2023-04-12T03:42:38.144Z,8.76
2023-04-12T03:45:05.613Z,8.82
2023-04-12T03:47:33.206Z,8.85
2023-04-12T03:50:12.398Z,8.78
2023-04-12T03:52:39.728Z,8.81
2023-04-12T03:55:07.871Z,8.86
2023-04-12T03:57:35.398Z,8.90
2023-04-12T04:00:06.303Z,8.93
2023-04-12T04:02:34.911Z,8.85
2023-04-12T04:05:04.116Z,8.86
2023-04-12T04:07:31.951Z,8.91
2023-04-12T04:10:00.005Z,8.88
2023-04-12T04:12:28.045Z,8.96
2023-04-12T04:14:55.237Z,8.94
2023-04-12T04:17:22.154Z,8.95
2023-04-12T04:19:49.867Z,9.03
2023-04-12T04:22:17.811Z,8.95
2023-04-12T04:24:45.815Z,8.89
2023-04-12T04:27:15.719Z,8.97
2023-04-12T04:29:45.698Z,8.94
2023-04-12T04:32:13.520Z,8.94
2023-04-12T04:34:40.740Z,8.97
2023-04-12T04:37:08.133Z,8.99
2023-04-12T04:39:36.237Z,8.99
2023-04-12T04:42:06.919Z,9.02
2023-04-12T04:44:35.787Z,9.01
2023-04-12T04:47:03.791Z,8.96
2023-04-12T04:49:31.337Z,8.91
2023-04-12T04:51:58.194Z,8.86
2023-04-12T04:54:25.080Z,8.90
2023-04-12T04:56:52.263Z,8.87
2023-04-12T04:59:20.218Z,8.98
2023-04-12T05:01:47.701Z,8.90
2023-04-12T05:04:15.346Z,8.85
2023-04-12T05:06:42.630Z,8.79
2023-04-12T05:09:10.111Z,8.84
2023-04-12T05:11:37.399Z,8.86
2023-04-12T05:14:05.109Z,8.85
2023-04-12T05:16:32.481Z,8.82
2023-04-12T05:19:00.426Z,8.91
2023-04-12T05:21:28.791Z,8.77
2023-04-12T05:23:56.123Z,8.72
2023-04-12T05:26:24.143Z,8.73
2023-04-12T05:28:51.179Z,8.73
2023-04-12T05:31:18.322Z,8.70
2023-04-12T05:33:45.873Z,8.75
2023-04-12T05:36:12.947Z,8.73
2023-04-12T05:38:40.449Z,8.71
2023-04-12T05:41:07.362Z,8.70
2023-04-12T05:43:34.576Z,8.73
2023-04-12T05:46:01.783Z,8.75
2023-04-12T05:48:28.914Z,8.80
2023-04-12T05:50:56.925Z,8.76
2023-04-12T05:53:24.848Z,8.77
2023-04-12T05:55:52.174Z,8.73
2023-04-12T05:58:19.128Z,8.79
2023-04-12T06:00:49.584Z,8.94
2023-04-12T06:03:17.126Z,8.93
2023-04-12T06:05:44.401Z,8.90
2023-04-12T06:08:13.115Z,8.92
2023-04-12T06:10:42.798Z,8.96
2023-04-12T06:13:09.614Z,8.92
2023-04-12T06:15:37.196Z,8.96
2023-04-12T06:18:07.337Z,8.99
2023-04-12T06:20:34.394Z,8.98
2023-04-12T06:23:01.264Z,9.02
2023-04-12T06:25:28.135Z,9.08
2023-04-12T06:27:56.416Z,9.23
2023-04-12T06:30:23.544Z,9.18
2023-04-12T06:32:50.817Z,9.17
2023-04-12T06:35:17.692Z,9.26
2023-04-12T06:37:45.333Z,9.29
2023-04-12T06:40:12.614Z,9.32
2023-04-12T06:42:39.824Z,9.33
2023-04-12T06:45:07.681Z,9.34
2023-04-12T06:47:35.250Z,9.33
2023-04-12T06:50:03.257Z,9.32
2023-04-12T06:52:31.171Z,9.47
2023-04-12T06:54:58.553Z,9.46
2023-04-12T06:57:26.002Z,9.34
2023-04-12T06:59:53.297Z,9.36
2023-04-12T07:02:21.088Z,9.36
2023-04-12T07:04:52.823Z,9.39
2023-04-12T07:07:21.014Z,9.45
2023-04-12T07:09:48.099Z,9.44
2023-04-12T07:12:16.156Z,9.45
2023-04-12T07:14:44.730Z,9.43
2023-04-12T07:17:12.955Z,9.43
2023-04-12T07:19:42.194Z,9.53
2023-04-12T07:22:09.136Z,9.66
2023-04-12T07:24:36.534Z,9.78
2023-04-12T07:27:05.133Z,9.87
2023-04-12T07:29:32.466Z,10.00
2023-04-12T07:32:00.807Z,9.97
2023-04-12T07:34:27.864Z,9.90
2023-04-12T07:36:55.304Z,9.88
2023-04-12T07:39:22.868Z,9.88
2023-04-12T07:41:50.044Z,9.93
2023-04-12T07:44:16.677Z,10.02
2023-04-12T07:46:44.136Z,9.99
2023-04-12T07:49:10.867Z,9.92
2023-04-12T07:51:37.678Z,9.99
2023-04-12T07:54:05.537Z,9.93
2023-04-12T07:56:35.859Z,9.84
2023-04-12T07:59:03.001Z,9.81
2023-04-12T08:01:31.120Z,9.80
2023-04-12T08:03:58.662Z,9.82
2023-04-12T08:06:29.409Z,9.85
2023-04-12T08:08:58.053Z,9.90
2023-04-12T08:11:25.686Z,10.01
2023-04-12T08:13:53.508Z,10.16
2023-04-12T08:16:21.000Z,10.21
2023-04-12T08:18:48.104Z,10.40
2023-04-12T08:21:15.951Z,10.38
2023-04-12T08:23:42.641Z,10.53
2023-04-12T08:26:10.146Z,10.65
2023-04-12T08:28:39.423Z,10.78
2023-04-12T08:31:07.628Z,10.93
2023-04-12T08:33:34.844Z,11.00
2023-04-12T08:36:02.257Z,11.02
2023-04-12T08:38:44.190Z,11.00
2023-04-12T08:41:14.685Z,10.98
2023-04-12T08:43:47.343Z,10.78
2023-04-12T08:46:15.974Z,10.78
2023-04-12T08:48:48.732Z,10.87
2023-04-12T08:51:20.066Z,10.95
2023-04-12T08:53:48.008Z,10.95
2023-04-12T08:56:16.539Z,11.03
2023-04-12T08:58:50.581Z,10.99
2023-04-12T09:01:20.881Z,10.90
2023-04-12T09:03:48.214Z,10.87
2023-04-12T09:06:15.832Z,10.84
2023-04-12T09:08:54.979Z,10.84
2023-04-12T09:11:27.504Z,10.97
2023-04-12T09:13:56.218Z,10.93
2023-04-12T09:16:42.781Z,10.90
2023-04-12T09:19:09.825Z,10.85
2023-04-12T09:21:37.216Z,10.78
2023-04-12T09:24:12.389Z,10.70
2023-04-12T09:26:40.777Z,10.72
2023-04-12T09:29:22.945Z,10.78
2023-04-12T09:32:06.273Z,10.89
2023-04-12T09:34:35.906Z,11.02
2023-04-12T09:37:16.334Z,11.04
2023-04-12T09:39:43.577Z,10.93
2023-04-12T09:42:29.241Z,10.91
2023-04-12T09:44:59.688Z,10.91
2023-04-12T09:47:40.933Z,10.93
2023-04-12T09:50:10.076Z,10.94
2023-04-12T09:52:40.767Z,10.93
2023-04-12T09:55:10.225Z,10.97
2023-04-12T09:57:44.489Z,11.02
2023-04-12T10:00:17.766Z,11.08
2023-04-12T10:02:47.807Z,11.30
2023-04-12T10:05:18.599Z,11.56
2023-04-12T10:07:47.227Z,11.75
2023-04-12T10:10:16.705Z,11.86
2023-04-12T10:12:45.778Z,11.95
2023-04-12T10:15:16.249Z,12.14
2023-04-12T10:17:46.990Z,12.26
2023-04-12T10:20:16.922Z,12.54
2023-04-12T10:22:48.875Z,12.79
2023-04-12T10:25:20.358Z,12.84
2023-04-12T10:27:48.091Z,12.86
2023-04-12T10:30:29.564Z,13.02
2023-04-12T10:33:02.463Z,13.02
2023-04-12T10:35:30.961Z,13.03
2023-04-12T10:38:01.894Z,12.98
2023-04-12T10:40:32.550Z,12.61
2023-04-12T10:43:26.937Z,11.84
2023-04-12T10:45:54.655Z,11.50
2023-04-12T10:48:37.828Z,11.20
2023-04-12T10:51:28.833Z,10.85
2023-04-12T10:54:08.518Z,10.81
2023-04-12T10:56:40.611Z,10.69
2023-04-12T10:59:11.965Z,10.60
2023-04-12T11:01:42.247Z,10.55
2023-04-12T11:04:20.988Z,10.52
2023-04-12T11:07:21.435Z,10.56
2023-04-12T11:09:48.702Z,10.72
2023-04-12T11:12:16.351Z,10.94
2023-04-12T11:14:47.684Z,11.07
2023-04-12T11:17:16.027Z,11.27
2023-04-12T11:19:49.989Z,11.47
2023-04-12T11:22:18.858Z,11.57
2023-04-12T11:24:51.020Z,11.65
2023-04-12T11:27:20.597Z,11.89
2023-04-12T11:29:56.112Z,12.02
2023-04-12T11:32:30.203Z,12.16
2023-04-12T11:34:58.493Z,12.39
2023-04-12T11:37:27.166Z,12.48
2023-04-12T11:39:58.409Z,12.74
2023-04-12T11:42:27.495Z,12.84
2023-04-12T11:44:59.851Z,13.04
2023-04-12T11:47:30.716Z,13.07
2023-04-12T11:49:59.591Z,13.03
2023-04-12T11:52:32.609Z,13.21
2023-04-12T11:55:02.125Z,13.51
2023-04-12T11:57:29.332Z,13.64
2023-04-12T12:00:01.184Z,13.76
2023-04-12T12:02:32.811Z,13.95
2023-04-12T12:05:02.405Z,14.06
2023-04-12T12:07:29.878Z,14.15
2023-04-12T12:09:57.685Z,14.07
2023-04-12T12:12:25.615Z,13.68
2023-04-12T12:14:53.543Z,13.74
2023-04-12T12:17:20.390Z,13.83
2023-04-12T12:19:47.187Z,14.05
2023-04-12T12:22:19.302Z,14.24
2023-04-12T12:24:59.998Z,14.26
2023-04-12T12:27:43.218Z,14.33
2023-04-12T12:30:12.390Z,14.38
2023-04-12T12:32:40.287Z,14.31
2023-04-12T12:35:12.886Z,14.45
2023-04-12T12:37:55.919Z,14.53
2023-04-12T12:40:32.778Z,14.38
2023-04-12T12:43:00.198Z,14.41
2023-04-12T12:45:29.630Z,14.48
2023-04-12T12:48:04.396Z,14.54
2023-04-12T12:50:35.653Z,14.89
2023-04-12T12:53:05.888Z,14.98
2023-04-12T12:55:33.150Z,14.82
2023-04-12T13:00:32.113Z,14.87
2023-04-12T13:02:59.593Z,14.90
2023-04-12T13:05:27.104Z,15.23
2023-04-12T13:07:54.126Z,15.65
2023-04-12T13:10:21.658Z,16.01
2023-04-12T13:12:48.950Z,15.63
2023-04-12T13:17:46.403Z,14.87
2023-04-12T13:20:13.842Z,14.61
2023-04-12T13:22:41.011Z,14.30
2023-04-12T13:25:09.287Z,14.36
2023-04-12T13:27:36.692Z,14.60
2023-04-12T13:30:06.221Z,14.93
2023-04-12T13:32:34.836Z,14.97
2023-04-12T13:35:01.993Z,14.65
2023-04-12T13:37:28.850Z,14.18
2023-04-12T13:39:55.714Z,13.75
2023-04-12T13:42:23.928Z,13.56
2023-04-12T13:44:52.029Z,12.87
2023-04-12T13:47:19.211Z,12.17
2023-04-12T13:49:46.694Z,11.67
2023-04-12T13:52:13.858Z,11.35
2023-04-12T13:54:43.189Z,11.08
2023-04-12T13:57:10.762Z,10.80
2023-04-12T13:59:37.956Z,10.86
2023-04-12T14:02:04.857Z,10.99
2023-04-12T14:04:33.430Z,11.49
2023-04-12T14:07:00.805Z,11.65
2023-04-12T14:09:30.585Z,11.25
2023-04-12T14:11:59.811Z,11.04
2023-04-12T14:14:27.737Z,10.89
2023-04-12T14:17:02.053Z,10.74
2023-04-12T14:19:29.265Z,10.71
2023-04-12T14:21:56.826Z,10.66
2023-04-12T14:24:24.019Z,10.56
2023-04-12T14:26:51.350Z,10.54
2023-04-12T14:29:18.055Z,10.51
2023-04-12T14:31:45.623Z,10.60
2023-04-12T14:34:13.404Z,10.62
2023-04-12T14:36:41.258Z,10.60
2023-04-12T14:39:11.665Z,10.59
2023-04-12T14:41:42.570Z,10.48
2023-04-12T14:44:09.722Z,10.99
2023-04-12T14:46:36.938Z,11.60
2023-04-12T14:49:04.366Z,11.78
2023-04-12T14:51:32.141Z,11.43
2023-04-12T14:54:00.827Z,11.25
2023-04-12T14:56:30.506Z,10.75
2023-04-12T14:58:58.500Z,10.63
2023-04-12T15:01:25.995Z,10.39
2023-04-12T15:03:54.376Z,10.28
2023-04-12T15:06:23.854Z,10.46
2023-04-12T15:08:54.644Z,10.50
2023-04-12T15:11:26.435Z,10.30
2023-04-12T15:13:54.156Z,9.96
2023-04-12T15:16:21.742Z,9.89
2023-04-12T15:18:50.080Z,9.72
2023-04-12T15:21:17.621Z,9.57
2023-04-12T15:23:45.913Z,9.72
2023-04-12T15:26:14.431Z,10.03
2023-04-12T15:28:42.684Z,10.21
2023-04-12T15:31:12.133Z,10.23
2023-04-12T15:33:39.239Z,10.45
2023-04-12T15:36:07.655Z,10.99
2023-04-12T15:38:42.378Z,11.79
2023-04-12T15:41:09.663Z,11.98
2023-04-12T15:43:36.787Z,11.88
2023-04-12T15:46:04.955Z,12.56
2023-04-12T15:48:32.419Z,13.36
2023-04-12T15:51:00.917Z,13.58
2023-04-12T15:53:28.162Z,13.84
2023-04-12T15:55:55.474Z,14.00
2023-04-12T15:58:24.413Z,14.35
2023-04-12T16:00:54.403Z,14.48
2023-04-12T16:03:26.215Z,13.30
2023-04-12T16:05:54.334Z,12.63
2023-04-12T16:08:22.632Z,12.01
2023-04-12T16:10:50.892Z,11.60
2023-04-12T16:13:18.692Z,11.41
2023-04-12T16:15:46.564Z,11.25
2023-04-12T16:18:13.754Z,10.95
2023-04-12T16:20:41.250Z,10.74
2023-04-12T16:23:09.077Z,10.50
2023-04-12T16:25:38.153Z,10.37
2023-04-12T16:28:06.209Z,10.11
2023-04-12T16:30:35.074Z,9.90
2023-04-12T16:33:02.950Z,9.78
2023-04-12T16:35:30.875Z,9.75
2023-04-12T16:37:58.233Z,10.05
2023-04-12T16:40:26.665Z,9.96
2023-04-12T16:42:53.891Z,9.98
2023-04-12T16:45:21.720Z,9.74
2023-04-12T16:47:48.982Z,9.57
2023-04-12T16:50:16.522Z,9.48
2023-04-12T16:52:43.976Z,9.39
2023-04-12T16:55:11.817Z,9.38
2023-04-12T16:57:40.642Z,9.34
2023-04-12T17:00:29.019Z,9.54
2023-04-12T17:02:56.791Z,9.92
2023-04-12T17:05:24.645Z,9.96
2023-04-12T17:07:55.187Z,10.06
2023-04-12T17:10:24.541Z,10.33
2023-04-12T17:12:54.743Z,10.48
2023-04-12T17:15:22.445Z,10.56
2023-04-12T17:17:52.292Z,10.57
2023-04-12T17:20:22.099Z,10.49
2023-04-12T17:22:50.282Z,10.31
2023-04-12T17:25:18.800Z,10.31
2023-04-12T17:27:47.997Z,10.18
2023-04-12T17:30:17.636Z,10.02
2023-04-12T17:32:47.386Z,10.01
2023-04-12T17:35:14.859Z,9.98
2023-04-12T17:37:41.847Z,9.98
2023-04-12T17:40:13.618Z,9.93
2023-04-12T17:42:42.354Z,9.85
2023-04-12T17:45:13.394Z,9.75
2023-04-12T17:47:41.557Z,9.71
2023-04-12T17:50:10.605Z,9.63
2023-04-12T17:52:38.593Z,9.58
2023-04-12T17:55:07.642Z,9.55
2023-04-12T17:57:34.872Z,9.57
2023-04-12T18:00:02.784Z,9.50
2023-04-12T18:02:30.041Z,9.52
2023-04-12T18:04:57.499Z,9.51
2023-04-12T18:07:24.200Z,9.46
2023-04-12T18:09:51.420Z,9.42
2023-04-12T18:12:18.980Z,9.41
2023-04-12T18:14:46.225Z,9.37
2023-04-12T18:17:13.177Z,9.29
2023-04-12T18:19:41.763Z,9.31
2023-04-12T18:22:09.072Z,9.25
2023-04-12T18:24:37.354Z,9.18
2023-04-12T18:27:07.060Z,9.10
2023-04-12T18:29:34.049Z,9.04
2023-04-12T18:32:01.326Z,9.02
2023-04-12T18:34:28.365Z,8.97
2023-04-12T18:36:55.349Z,8.93
2023-04-12T18:39:22.508Z,8.89
2023-04-12T18:41:49.708Z,8.87
2023-04-12T18:44:21.964Z,8.88
2023-04-12T18:46:48.874Z,8.89
2023-04-12T18:49:16.405Z,8.84
2023-04-12T18:51:43.635Z,8.80
2023-04-12T18:54:15.182Z,8.80
2023-04-12T18:56:42.515Z,8.81
2023-04-12T18:59:15.995Z,8.79
2023-04-12T19:01:43.631Z,8.75
2023-04-12T19:04:10.667Z,8.68
2023-04-12T19:06:38.352Z,8.64
2023-04-12T19:09:07.288Z,8.61
2023-04-12T19:11:36.919Z,8.58
2023-04-12T19:14:05.289Z,8.55
2023-04-12T19:16:32.691Z,8.52
2023-04-12T19:19:00.335Z,8.47
2023-04-12T19:21:32.399Z,8.41
2023-04-12T19:24:00.209Z,8.38
2023-04-12T19:26:28.172Z,8.37
2023-04-12T19:28:58.164Z,8.38
2023-04-12T19:31:25.400Z,8.36
2023-04-12T19:33:54.525Z,8.34
2023-04-12T19:36:24.444Z,8.31
2023-04-12T19:38:52.546Z,8.19
2023-04-12T19:41:20.853Z,8.22
2023-04-12T19:43:48.239Z,8.19
2023-04-12T19:46:16.585Z,8.15
2023-04-12T19:48:45.555Z,8.13
2023-04-12T19:51:14.832Z,8.13
2023-04-12T19:53:42.058Z,8.04
2023-04-12T19:56:09.799Z,8.04
2023-04-12T19:58:37.364Z,8.01
2023-04-12T20:01:07.653Z,7.94
2023-04-12T20:03:35.041Z,7.94
2023-04-12T20:06:04.613Z,7.94
2023-04-12T20:08:32.205Z,7.99
2023-04-12T20:10:59.623Z,8.04
2023-04-12T20:13:27.687Z,8.12
2023-04-12T20:15:54.934Z,8.13
2023-04-12T20:18:21.831Z,8.18
2023-04-12T20:20:49.598Z,8.17
2023-04-12T20:23:17.778Z,8.16
2023-04-12T20:25:48.856Z,8.19
2023-04-12T20:28:15.929Z,8.16
2023-04-12T20:30:43.231Z,8.11
2023-04-12T20:33:10.812Z,8.02
2023-04-12T20:35:38.081Z,7.85
2023-04-12T20:38:05.306Z,7.82
2023-04-12T20:40:32.497Z,7.76
2023-04-12T20:42:59.898Z,7.64
2023-04-12T20:45:27.366Z,7.61
2023-04-12T20:47:54.283Z,7.47
2023-04-12T20:50:22.802Z,7.45
2023-04-12T20:52:53.180Z,7.42
2023-04-12T20:55:22.723Z,7.37
2023-04-12T20:57:50.728Z,7.37
2023-04-12T21:00:18.730Z,7.34
2023-04-12T21:02:47.042Z,7.26
2023-04-12T21:05:17.050Z,7.24
2023-04-12T21:07:46.946Z,7.22
2023-04-12T21:10:14.926Z,7.19
2023-04-12T21:12:42.681Z,7.19
2023-04-12T21:15:11.859Z,7.17
2023-04-12T21:17:39.328Z,7.14
2023-04-12T21:20:14.454Z,7.15
2023-04-12T21:22:43.353Z,7.10
2023-04-12T21:25:16.197Z,7.10
2023-04-12T21:27:45.052Z,7.09
2023-04-12T21:30:12.919Z,7.05
2023-04-12T21:32:41.094Z,6.99
2023-04-12T21:35:10.053Z,7.00
2023-04-12T21:37:40.947Z,6.92
2023-04-12T21:40:09.988Z,6.90
2023-04-12T21:42:37.305Z,6.87
2023-04-12T21:45:05.041Z,6.86
2023-04-12T21:47:32.381Z,6.88
2023-04-12T21:50:00.186Z,6.84
2023-04-12T21:52:27.795Z,6.84
2023-04-12T21:54:58.141Z,6.80
2023-04-12T21:57:35.384Z,6.71
2023-04-12T22:00:05.194Z,6.72
2023-04-12T22:02:32.929Z,6.70
2023-04-12T22:04:59.981Z,6.67
2023-04-12T22:07:28.612Z,6.65
2023-04-12T22:09:55.361Z,6.68
2023-04-12T22:12:25.480Z,6.68
2023-04-12T22:14:52.531Z,6.63
2023-04-12T22:17:21.346Z,6.63
2023-04-12T22:19:48.450Z,6.71
2023-04-12T22:22:16.353Z,6.67
2023-04-12T22:24:44.104Z,6.65
2023-04-12T22:27:11.461Z,6.69
2023-04-12T22:29:38.370Z,6.67
2023-04-12T22:32:05.461Z,6.73
2023-04-12T22:34:32.646Z,6.82
2023-04-12T22:36:59.736Z,6.76
2023-04-12T22:39:27.237Z,6.78
2023-04-12T22:41:57.359Z,6.71
2023-04-12T22:44:25.777Z,6.75
2023-04-12T22:46:56.715Z,6.77
2023-04-12T22:49:28.068Z,6.73
2023-04-12T22:51:56.393Z,6.75
2023-04-12T22:54:25.353Z,6.74
2023-04-12T22:56:52.556Z,6.73
2023-04-12T22:59:20.358Z,6.86
2023-04-12T23:01:48.567Z,6.83
2023-04-12T23:04:17.014Z,6.81
2023-04-12T23:06:45.532Z,6.88
2023-04-12T23:09:13.332Z,6.92
2023-04-12T23:11:41.107Z,6.93
2023-04-12T23:14:09.300Z,6.98
2023-04-12T23:16:42.354Z,7.08
2023-04-12T23:19:15.525Z,7.11
2023-04-12T23:21:43.801Z,7.04
2023-04-12T23:24:16.393Z,7.01
2023-04-12T23:26:45.424Z,6.93
2023-04-12T23:29:12.943Z,7.01
2023-04-12T23:31:41.084Z,7.06
2023-04-12T23:34:08.279Z,7.03
2023-04-12T23:36:35.886Z,7.15
2023-04-12T23:39:07.231Z,7.17
2023-04-12T23:41:34.672Z,7.14
2023-04-12T23:44:02.126Z,7.14
2023-04-12T23:46:29.895Z,7.30
2023-04-12T23:48:57.903Z,7.19
2023-04-12T23:51:24.897Z,7.20
2023-04-12T23:53:52.405Z,7.15
2023-04-12T23:56:19.206Z,7.18
2023-04-12T23:58:47.078Z,7.18
